sensor_id;sensor_type;location;lat;lon;timestamp;pressure;altitude;pressure_sealevel;temperature;humidity
39613;BME280;25303;48.896;13.342;2023-03-13T00:02:05;92502.13;;;3.80;83.27
39613;BME280;25303;48.896;13.342;2023-03-13T00:04:48;92486.84;;;3.80;83.31
39613;BME280;25303;48.896;13.342;2023-03-13T00:07:31;92490.97;;;3.82;83.20
39613;BME280;25303;48.896;13.342;2023-03-13T00:10:16;92485.88;;;3.82;83.27
39613;BME280;25303;48.896;13.342;2023-03-13T00:12:58;92487.78;;;3.79;83.45
39613;BME280;25303;48.896;13.342;2023-03-13T00:15:41;92480.13;;;3.79;83.35
39613;BME280;25303;48.896;13.342;2023-03-13T00:18:24;92483.47;;;3.80;83.50
39613;BME280;25303;48.896;13.342;2023-03-13T00:21:08;92484.41;;;3.79;83.15
39613;BME280;25303;48.896;13.342;2023-03-13T00:23:51;92486.28;;;3.77;83.03
39613;BME280;25303;48.896;13.342;2023-03-13T00:26:36;92487.81;;;3.68;83.29
39613;BME280;25303;48.896;13.342;2023-03-13T00:29:19;92486.28;;;3.56;84.70
39613;BME280;25303;48.896;13.342;2023-03-13T00:32:02;92480.00;;;3.60;84.55
39613;BME280;25303;48.896;13.342;2023-03-13T00:34:45;92481.50;;;3.62;84.23
39613;BME280;25303;48.896;13.342;2023-03-13T00:37:30;92470.88;;;3.57;84.24
39613;BME280;25303;48.896;13.342;2023-03-13T00:40:13;92467.28;;;3.60;84.27
39613;BME280;25303;48.896;13.342;2023-03-13T00:42:58;92461.25;;;3.61;84.18
39613;BME280;25303;48.896;13.342;2023-03-13T00:45:41;92462.88;;;3.62;83.96
39613;BME280;25303;48.896;13.342;2023-03-13T00:48:24;92459.75;;;3.58;84.38
39613;BME280;25303;48.896;13.342;2023-03-13T00:51:07;92469.38;;;3.55;84.52
39613;BME280;25303;48.896;13.342;2023-03-13T00:53:50;92465.22;;;3.54;84.43
39613;BME280;25303;48.896;13.342;2023-03-13T00:56:33;92459.06;;;3.56;84.40
39613;BME280;25303;48.896;13.342;2023-03-13T00:59:18;92453.31;;;3.54;84.53
39613;BME280;25303;48.896;13.342;2023-03-13T01:02:00;92462.00;;;3.52;84.81
39613;BME280;25303;48.896;13.342;2023-03-13T01:04:44;92456.53;;;3.56;84.57
39613;BME280;25303;48.896;13.342;2023-03-13T01:07:28;92454.06;;;3.45;85.58
39613;BME280;25303;48.896;13.342;2023-03-13T01:10:11;92447.53;;;3.52;85.02
39613;BME280;25303;48.896;13.342;2023-03-13T01:12:54;92442.84;;;3.47;85.36
39613;BME280;25303;48.896;13.342;2023-03-13T01:15:39;92445.00;;;3.52;84.91
39613;BME280;25303;48.896;13.342;2023-03-13T01:18:23;92420.97;;;3.45;85.06
39613;BME280;25303;48.896;13.342;2023-03-13T01:21:06;92425.94;;;3.46;85.04
39613;BME280;25303;48.896;13.342;2023-03-13T01:23:50;92420.28;;;3.43;85.32
39613;BME280;25303;48.896;13.342;2023-03-13T01:26:33;92414.50;;;3.41;85.37
39613;BME280;25303;48.896;13.342;2023-03-13T01:29:16;92411.84;;;3.21;86.64
39613;BME280;25303;48.896;13.342;2023-03-13T01:32:01;92407.50;;;3.33;85.98
39613;BME280;25303;48.896;13.342;2023-03-13T01:34:44;92399.63;;;3.15;88.00
39613;BME280;25303;48.896;13.342;2023-03-13T01:37:27;92388.22;;;3.30;86.52
39613;BME280;25303;48.896;13.342;2023-03-13T01:40:11;92390.38;;;3.35;86.14
39613;BME280;25303;48.896;13.342;2023-03-13T01:42:55;92395.34;;;3.37;85.75
39613;BME280;25303;48.896;13.342;2023-03-13T01:45:49;92389.44;;;3.36;85.94
39613;BME280;25303;48.896;13.342;2023-03-13T01:48:39;92390.13;;;3.38;85.54
39613;BME280;25303;48.896;13.342;2023-03-13T01:51:26;92387.44;;;3.40;85.75
39613;BME280;25303;48.896;13.342;2023-03-13T01:54:14;92387.19;;;3.43;85.43
39613;BME280;25303;48.896;13.342;2023-03-13T01:57:00;92380.94;;;3.47;85.25
39613;BME280;25303;48.896;13.342;2023-03-13T01:59:48;92384.03;;;3.50;85.32
39613;BME280;25303;48.896;13.342;2023-03-13T02:02:35;92384.47;;;3.56;85.25
39613;BME280;25303;48.896;13.342;2023-03-13T02:05:25;92382.34;;;3.61;85.37
39613;BME280;25303;48.896;13.342;2023-03-13T02:08:12;92383.97;;;3.62;85.15
39613;BME280;25303;48.896;13.342;2023-03-13T02:11:03;92385.31;;;3.66;85.05
39613;BME280;25303;48.896;13.342;2023-03-13T02:13:49;92384.13;;;3.70;85.04
39613;BME280;25303;48.896;13.342;2023-03-13T02:16:33;92373.03;;;3.71;85.16
39613;BME280;25303;48.896;13.342;2023-03-13T02:19:26;92374.78;;;3.71;84.89
39613;BME280;25303;48.896;13.342;2023-03-13T02:22:15;92379.72;;;3.72;84.79
39613;BME280;25303;48.896;13.342;2023-03-13T02:25:07;92376.88;;;3.65;85.14
39613;BME280;25303;48.896;13.342;2023-03-13T02:27:57;92383.59;;;3.67;84.68
39613;BME280;25303;48.896;13.342;2023-03-13T02:30:44;92386.13;;;3.67;84.75
39613;BME280;25303;48.896;13.342;2023-03-13T02:33:30;92384.66;;;3.64;84.93
39613;BME280;25303;48.896;13.342;2023-03-13T02:36:15;92388.38;;;3.60;84.91
39613;BME280;25303;48.896;13.342;2023-03-13T02:38:59;92385.94;;;3.58;84.99
39613;BME280;25303;48.896;13.342;2023-03-13T02:41:45;92379.88;;;3.49;85.18
39613;BME280;25303;48.896;13.342;2023-03-13T02:44:30;92382.41;;;3.49;85.32
39613;BME280;25303;48.896;13.342;2023-03-13T02:47:16;92393.41;;;3.50;85.72
39613;BME280;25303;48.896;13.342;2023-03-13T02:49:59;92384.16;;;3.49;85.49
39613;BME280;25303;48.896;13.342;2023-03-13T02:52:44;92391.56;;;3.52;85.64
39613;BME280;25303;48.896;13.342;2023-03-13T02:55:33;92395.19;;;3.59;85.98
39613;BME280;25303;48.896;13.342;2023-03-13T02:58:17;92388.53;;;3.68;85.84
39613;BME280;25303;48.896;13.342;2023-03-13T03:01:02;92400.88;;;3.73;85.67
39613;BME280;25303;48.896;13.342;2023-03-13T03:03:51;92389.41;;;3.78;85.69
39613;BME280;25303;48.896;13.342;2023-03-13T03:06:34;92392.50;;;3.82;85.43
39613;BME280;25303;48.896;13.342;2023-03-13T03:09:19;92387.94;;;3.86;85.24
39613;BME280;25303;48.896;13.342;2023-03-13T03:12:06;92379.63;;;3.84;85.17
39613;BME280;25303;48.896;13.342;2023-03-13T03:14:49;92379.34;;;3.77;84.87
39613;BME280;25303;48.896;13.342;2023-03-13T03:17:33;92377.13;;;3.62;84.96
39613;BME280;25303;48.896;13.342;2023-03-13T03:20:17;92386.53;;;3.62;84.91
39613;BME280;25303;48.896;13.342;2023-03-13T03:23:01;92382.84;;;3.55;84.36
39613;BME280;25303;48.896;13.342;2023-03-13T03:25:43;92377.53;;;3.37;84.71
39613;BME280;25303;48.896;13.342;2023-03-13T03:28:27;92374.72;;;3.40;84.70
39613;BME280;25303;48.896;13.342;2023-03-13T03:31:13;92385.88;;;3.39;84.72
39613;BME280;25303;48.896;13.342;2023-03-13T03:33:59;92385.19;;;3.37;84.56
39613;BME280;25303;48.896;13.342;2023-03-13T03:36:43;92389.59;;;3.34;84.64
39613;BME280;25303;48.896;13.342;2023-03-13T03:39:26;92385.53;;;3.32;84.67
39613;BME280;25303;48.896;13.342;2023-03-13T03:42:09;92385.91;;;3.27;84.98
39613;BME280;25303;48.896;13.342;2023-03-13T03:44:52;92381.50;;;3.29;84.94
39613;BME280;25303;48.896;13.342;2023-03-13T03:47:36;92381.41;;;3.31;84.87
39613;BME280;25303;48.896;13.342;2023-03-13T03:50:21;92386.22;;;3.34;84.76
39613;BME280;25303;48.896;13.342;2023-03-13T03:53:11;92387.03;;;3.34;85.02
39613;BME280;25303;48.896;13.342;2023-03-13T03:55:54;92384.50;;;3.34;85.11
39613;BME280;25303;48.896;13.342;2023-03-13T03:58:37;92370.59;;;3.39;85.20
39613;BME280;25303;48.896;13.342;2023-03-13T04:01:40;92368.34;;;3.45;85.14
39613;BME280;25303;48.896;13.342;2023-03-13T04:04:26;92366.09;;;3.52;85.26
39613;BME280;25303;48.896;13.342;2023-03-13T04:07:16;92367.34;;;3.58;85.17
39613;BME280;25303;48.896;13.342;2023-03-13T04:09:59;92375.66;;;3.60;84.96
39613;BME280;25303;48.896;13.342;2023-03-13T04:12:50;92352.06;;;3.58;84.71
39613;BME280;25303;48.896;13.342;2023-03-13T04:15:33;92369.88;;;3.58;84.82
39613;BME280;25303;48.896;13.342;2023-03-13T04:18:16;92366.66;;;3.56;84.81
39613;BME280;25303;48.896;13.342;2023-03-13T04:21:00;92362.75;;;3.52;84.93
39613;BME280;25303;48.896;13.342;2023-03-13T04:23:47;92354.56;;;3.48;85.17
39613;BME280;25303;48.896;13.342;2023-03-13T04:26:31;92354.56;;;3.48;84.88
39613;BME280;25303;48.896;13.342;2023-03-13T04:29:15;92355.50;;;3.47;85.07
39613;BME280;25303;48.896;13.342;2023-03-13T04:32:06;92348.25;;;3.42;84.97
39613;BME280;25303;48.896;13.342;2023-03-13T04:35:13;92350.78;;;3.42;85.26
39613;BME280;25303;48.896;13.342;2023-03-13T04:38:13;92349.97;;;3.42;85.35
39613;BME280;25303;48.896;13.342;2023-03-13T04:41:14;92351.72;;;3.41;85.16
39613;BME280;25303;48.896;13.342;2023-03-13T04:44:18;92348.09;;;3.44;85.28
39613;BME280;25303;48.896;13.342;2023-03-13T04:47:29;92352.16;;;3.46;85.50
39613;BME280;25303;48.896;13.342;2023-03-13T04:50:26;92347.84;;;3.47;85.38
39613;BME280;25303;48.896;13.342;2023-03-13T04:53:25;92334.88;;;3.50;85.37
39613;BME280;25303;48.896;13.342;2023-03-13T04:56:33;92335.97;;;3.57;85.44
39613;BME280;25303;48.896;13.342;2023-03-13T04:59:44;92325.28;;;3.63;85.45
39613;BME280;25303;48.896;13.342;2023-03-13T05:02:45;92328.53;;;3.65;85.31
39613;BME280;25303;48.896;13.342;2023-03-13T05:05:47;92325.72;;;3.69;85.12
39613;BME280;25303;48.896;13.342;2023-03-13T05:08:50;92319.56;;;3.71;85.22
39613;BME280;25303;48.896;13.342;2023-03-13T05:11:34;92334.84;;;3.71;84.90
39613;BME280;25303;48.896;13.342;2023-03-13T05:14:17;92326.94;;;3.74;84.90
39613;BME280;25303;48.896;13.342;2023-03-13T05:17:10;92323.31;;;3.77;85.11
39613;BME280;25303;48.896;13.342;2023-03-13T05:20:12;92321.34;;;3.80;84.97
39613;BME280;25303;48.896;13.342;2023-03-13T05:23:06;92320.28;;;3.83;84.83
39613;BME280;25303;48.896;13.342;2023-03-13T05:26:02;92331.13;;;3.85;84.71
39613;BME280;25303;48.896;13.342;2023-03-13T05:29:22;92331.94;;;3.86;84.57
39613;BME280;25303;48.896;13.342;2023-03-13T05:32:27;92329.53;;;3.84;84.65
39613;BME280;25303;48.896;13.342;2023-03-13T05:35:27;92315.97;;;3.84;84.38
39613;BME280;25303;48.896;13.342;2023-03-13T05:38:33;92324.44;;;3.84;84.57
39613;BME280;25303;48.896;13.342;2023-03-13T05:41:36;92315.97;;;3.84;84.32
39613;BME280;25303;48.896;13.342;2023-03-13T05:44:42;92314.34;;;3.83;84.29
39613;BME280;25303;48.896;13.342;2023-03-13T05:47:46;92312.75;;;3.82;84.22
39613;BME280;25303;48.896;13.342;2023-03-13T05:50:48;92314.50;;;3.81;84.29
39613;BME280;25303;48.896;13.342;2023-03-13T05:53:33;92323.06;;;3.80;84.12
39613;BME280;25303;48.896;13.342;2023-03-13T05:56:30;92320.53;;;3.80;83.99
39613;BME280;25303;48.896;13.342;2023-03-13T05:59:37;92316.38;;;3.79;84.16
39613;BME280;25303;48.896;13.342;2023-03-13T06:02:39;92317.44;;;3.76;83.93
39613;BME280;25303;48.896;13.342;2023-03-13T06:05:27;92313.13;;;3.77;83.91
39613;BME280;25303;48.896;13.342;2023-03-13T06:08:11;92302.97;;;3.77;83.94
39613;BME280;25303;48.896;13.342;2023-03-13T06:10:53;92307.13;;;3.78;83.92
39613;BME280;25303;48.896;13.342;2023-03-13T06:13:37;92285.03;;;3.78;83.85
39613;BME280;25303;48.896;13.342;2023-03-13T06:16:31;92273.31;;;3.66;84.09
39613;BME280;25303;48.896;13.342;2023-03-13T06:19:33;92277.75;;;3.64;83.93
39613;BME280;25303;48.896;13.342;2023-03-13T06:22:16;92290.28;;;3.56;84.06
39613;BME280;25303;48.896;13.342;2023-03-13T06:24:59;92301.56;;;3.53;84.00
39613;BME280;25303;48.896;13.342;2023-03-13T06:27:42;92291.72;;;3.48;84.17
39613;BME280;25303;48.896;13.342;2023-03-13T06:30:25;92292.16;;;3.54;84.53
39613;BME280;25303;48.896;13.342;2023-03-13T06:33:08;92299.97;;;3.62;84.71
39613;BME280;25303;48.896;13.342;2023-03-13T06:35:53;92297.47;;;3.72;85.11
39613;BME280;25303;48.896;13.342;2023-03-13T06:38:37;92290.66;;;3.82;85.41
39613;BME280;25303;48.896;13.342;2023-03-13T06:41:20;92278.06;;;3.90;86.15
39613;BME280;25303;48.896;13.342;2023-03-13T06:44:03;92273.53;;;3.94;86.29
39613;BME280;25303;48.896;13.342;2023-03-13T06:46:47;92281.84;;;4.06;86.20
39613;BME280;25303;48.896;13.342;2023-03-13T06:49:30;92282.78;;;4.15;86.05
39613;BME280;25303;48.896;13.342;2023-03-13T06:52:14;92269.94;;;4.16;85.97
39613;BME280;25303;48.896;13.342;2023-03-13T06:54:59;92275.16;;;4.24;85.80
39613;BME280;25303;48.896;13.342;2023-03-13T06:57:42;92297.84;;;4.37;85.83
39613;BME280;25303;48.896;13.342;2023-03-13T07:00:25;92288.34;;;4.49;85.61
39613;BME280;25303;48.896;13.342;2023-03-13T07:03:09;92293.28;;;4.61;85.73
39613;BME280;25303;48.896;13.342;2023-03-13T07:05:54;92286.72;;;4.68;85.16
39613;BME280;25303;48.896;13.342;2023-03-13T07:08:39;92292.63;;;4.78;85.15
39613;BME280;25303;48.896;13.342;2023-03-13T07:11:22;92272.09;;;4.70;84.94
39613;BME280;25303;48.896;13.342;2023-03-13T07:14:05;92255.56;;;4.64;84.54
39613;BME280;25303;48.896;13.342;2023-03-13T07:16:58;92252.63;;;4.69;84.08
39613;BME280;25303;48.896;13.342;2023-03-13T07:19:41;92259.63;;;4.67;83.62
39613;BME280;25303;48.896;13.342;2023-03-13T07:22:24;92266.19;;;4.69;83.67
39613;BME280;25303;48.896;13.342;2023-03-13T07:25:09;92270.06;;;4.74;83.74
39613;BME280;25303;48.896;13.342;2023-03-13T07:27:51;92269.94;;;4.75;83.86
39613;BME280;25303;48.896;13.342;2023-03-13T07:30:34;92258.53;;;4.79;83.68
39613;BME280;25303;48.896;13.342;2023-03-13T07:33:18;92253.00;;;4.84;83.49
39613;BME280;25303;48.896;13.342;2023-03-13T07:36:01;92239.72;;;4.90;83.25
39613;BME280;25303;48.896;13.342;2023-03-13T07:38:46;92226.41;;;4.96;83.17
39613;BME280;25303;48.896;13.342;2023-03-13T07:41:30;92239.69;;;5.00;82.85
39613;BME280;25303;48.896;13.342;2023-03-13T07:44:13;92227.72;;;5.00;82.22
39613;BME280;25303;48.896;13.342;2023-03-13T07:46:58;92223.69;;;5.08;82.66
39613;BME280;25303;48.896;13.342;2023-03-13T07:49:41;92224.09;;;5.13;82.40
39613;BME280;25303;48.896;13.342;2023-03-13T07:52:24;92237.88;;;5.20;82.38
39613;BME280;25303;48.896;13.342;2023-03-13T07:55:08;92248.06;;;5.30;82.50
39613;BME280;25303;48.896;13.342;2023-03-13T07:57:52;92252.44;;;5.47;82.90
39613;BME280;25303;48.896;13.342;2023-03-13T08:00:35;92248.31;;;5.65;82.74
39613;BME280;25303;48.896;13.342;2023-03-13T08:03:19;92234.66;;;5.84;82.54
39613;BME280;25303;48.896;13.342;2023-03-13T08:06:04;92231.03;;;6.04;82.20
39613;BME280;25303;48.896;13.342;2023-03-13T08:08:48;92238.28;;;6.27;82.16
39613;BME280;25303;48.896;13.342;2023-03-13T08:11:31;92234.94;;;6.45;81.66
39613;BME280;25303;48.896;13.342;2023-03-13T08:14:16;92240.72;;;6.47;80.30
39613;BME280;25303;48.896;13.342;2023-03-13T08:16:59;92240.72;;;6.47;79.33
39613;BME280;25303;48.896;13.342;2023-03-13T08:19:42;92241.38;;;6.49;79.96
39613;BME280;25303;48.896;13.342;2023-03-13T08:22:25;92237.50;;;6.45;79.18
39613;BME280;25303;48.896;13.342;2023-03-13T08:25:08;92239.00;;;6.37;78.70
39613;BME280;25303;48.896;13.342;2023-03-13T08:27:51;92244.06;;;6.29;78.80
39613;BME280;25303;48.896;13.342;2023-03-13T08:30:36;92248.97;;;6.22;79.04
39613;BME280;25303;48.896;13.342;2023-03-13T08:33:19;92242.97;;;6.14;78.66
39613;BME280;25303;48.896;13.342;2023-03-13T08:36:09;92244.63;;;6.05;78.72
39613;BME280;25303;48.896;13.342;2023-03-13T08:38:53;92243.44;;;5.99;78.85
39613;BME280;25303;48.896;13.342;2023-03-13T08:41:37;92234.44;;;5.95;78.88
39613;BME280;25303;48.896;13.342;2023-03-13T08:44:21;92231.66;;;5.88;78.93
39613;BME280;25303;48.896;13.342;2023-03-13T08:47:06;92238.81;;;5.85;79.06
39613;BME280;25303;48.896;13.342;2023-03-13T08:49:49;92239.88;;;5.82;79.18
39613;BME280;25303;48.896;13.342;2023-03-13T08:52:32;92230.94;;;5.78;79.02
39613;BME280;25303;48.896;13.342;2023-03-13T08:55:15;92233.88;;;5.73;79.16
39613;BME280;25303;48.896;13.342;2023-03-13T08:57:58;92239.31;;;5.70;79.17
39613;BME280;25303;48.896;13.342;2023-03-13T09:00:41;92243.34;;;5.63;78.90
39613;BME280;25303;48.896;13.342;2023-03-13T09:03:26;92242.19;;;5.57;78.66
39613;BME280;25303;48.896;13.342;2023-03-13T09:06:10;92244.06;;;5.55;78.69
39613;BME280;25303;48.896;13.342;2023-03-13T09:08:55;92242.44;;;5.54;78.58
39613;BME280;25303;48.896;13.342;2023-03-13T09:11:38;92234.28;;;5.51;78.34
39613;BME280;25303;48.896;13.342;2023-03-13T09:14:21;92232.94;;;5.46;77.99
39613;BME280;25303;48.896;13.342;2023-03-13T09:17:04;92234.31;;;5.41;77.74
39613;BME280;25303;48.896;13.342;2023-03-13T09:19:49;92232.19;;;5.36;77.64
39613;BME280;25303;48.896;13.342;2023-03-13T09:22:41;92227.66;;;5.30;77.51
39613;BME280;25303;48.896;13.342;2023-03-13T09:25:24;92226.84;;;5.29;77.72
39613;BME280;25303;48.896;13.342;2023-03-13T09:28:07;92230.34;;;5.28;77.69
39613;BME280;25303;48.896;13.342;2023-03-13T09:30:50;92213.53;;;5.26;77.66
39613;BME280;25303;48.896;13.342;2023-03-13T09:33:34;92208.31;;;5.27;77.79
39613;BME280;25303;48.896;13.342;2023-03-13T09:36:19;92218.09;;;5.32;77.87
39613;BME280;25303;48.896;13.342;2023-03-13T09:39:03;92224.81;;;5.33;77.75
39613;BME280;25303;48.896;13.342;2023-03-13T09:41:52;92225.47;;;5.35;77.98
39613;BME280;25303;48.896;13.342;2023-03-13T09:44:39;92229.78;;;5.35;78.62
39613;BME280;25303;48.896;13.342;2023-03-13T09:47:39;92225.94;;;5.21;79.50
39613;BME280;25303;48.896;13.342;2023-03-13T09:50:26;92218.84;;;5.14;80.26
39613;BME280;25303;48.896;13.342;2023-03-13T09:53:15;92230.50;;;5.17;79.87
39613;BME280;25303;48.896;13.342;2023-03-13T09:56:03;92231.53;;;4.96;81.37
39613;BME280;25303;48.896;13.342;2023-03-13T09:58:51;92235.28;;;4.92;81.31
39613;BME280;25303;48.896;13.342;2023-03-13T10:01:37;92236.63;;;4.96;81.24
39613;BME280;25303;48.896;13.342;2023-03-13T10:04:27;92220.78;;;4.93;82.28
39613;BME280;25303;48.896;13.342;2023-03-13T10:07:12;92214.44;;;5.07;81.45
39613;BME280;25303;48.896;13.342;2023-03-13T10:09:58;92212.28;;;5.12;81.33
39613;BME280;25303;48.896;13.342;2023-03-13T10:12:44;92219.34;;;5.18;80.91
39613;BME280;25303;48.896;13.342;2023-03-13T10:15:33;92211.94;;;5.25;80.87
39613;BME280;25303;48.896;13.342;2023-03-13T10:18:21;92214.88;;;5.30;81.00
39613;BME280;25303;48.896;13.342;2023-03-13T10:21:13;92205.84;;;5.36;81.01
39613;BME280;25303;48.896;13.342;2023-03-13T10:24:01;92196.97;;;5.40;81.36
39613;BME280;25303;48.896;13.342;2023-03-13T10:26:47;92198.00;;;5.47;80.84
39613;BME280;25303;48.896;13.342;2023-03-13T10:29:30;92187.91;;;5.55;80.95
39613;BME280;25303;48.896;13.342;2023-03-13T10:32:15;92197.66;;;5.60;80.75
39613;BME280;25303;48.896;13.342;2023-03-13T10:35:00;92195.00;;;5.61;80.59
39613;BME280;25303;48.896;13.342;2023-03-13T10:37:43;92188.84;;;5.72;80.46
39613;BME280;25303;48.896;13.342;2023-03-13T10:40:27;92192.75;;;5.76;80.37
39613;BME280;25303;48.896;13.342;2023-03-13T10:43:17;92189.72;;;5.63;80.69
39613;BME280;25303;48.896;13.342;2023-03-13T10:46:03;92182.69;;;5.75;80.62
39613;BME280;25303;48.896;13.342;2023-03-13T10:48:46;92187.06;;;5.83;80.37
39613;BME280;25303;48.896;13.342;2023-03-13T10:51:34;92179.75;;;5.70;80.26
39613;BME280;25303;48.896;13.342;2023-03-13T10:54:22;92182.09;;;5.81;80.24
39613;BME280;25303;48.896;13.342;2023-03-13T10:57:25;92186.63;;;5.87;81.28
39613;BME280;25303;48.896;13.342;2023-03-13T11:00:28;92184.16;;;5.96;80.68
39613;BME280;25303;48.896;13.342;2023-03-13T11:03:15;92176.75;;;5.74;82.05
39613;BME280;25303;48.896;13.342;2023-03-13T11:06:01;92164.63;;;5.58;82.14
39613;BME280;25303;48.896;13.342;2023-03-13T11:08:44;92181.22;;;5.90;81.52
39613;BME280;25303;48.896;13.342;2023-03-13T11:11:27;92193.91;;;6.10;81.71
39613;BME280;25303;48.896;13.342;2023-03-13T11:14:14;92172.47;;;5.93;81.98
39613;BME280;25303;48.896;13.342;2023-03-13T11:17:03;92164.75;;;6.03;81.86
39613;BME280;25303;48.896;13.342;2023-03-13T11:20:01;92155.03;;;5.88;82.82
39613;BME280;25303;48.896;13.342;2023-03-13T11:22:54;92155.41;;;6.12;82.11
39613;BME280;25303;48.896;13.342;2023-03-13T11:25:42;92139.53;;;6.44;81.21
39613;BME280;25303;48.896;13.342;2023-03-13T11:28:39;92133.41;;;6.63;81.27
39613;BME280;25303;48.896;13.342;2023-03-13T11:31:30;92135.00;;;6.91;79.55
39613;BME280;25303;48.896;13.342;2023-03-13T11:34:21;92127.47;;;7.24;78.12
39613;BME280;25303;48.896;13.342;2023-03-13T11:37:10;92130.63;;;7.60;78.30
39613;BME280;25303;48.896;13.342;2023-03-13T11:39:59;92136.78;;;7.84;78.17
39613;BME280;25303;48.896;13.342;2023-03-13T11:43:02;92128.94;;;7.94;77.56
39613;BME280;25303;48.896;13.342;2023-03-13T11:46:17;92128.44;;;7.90;76.42
39613;BME280;25303;48.896;13.342;2023-03-13T11:49:23;92142.38;;;7.88;76.90
39613;BME280;25303;48.896;13.342;2023-03-13T11:52:18;92129.09;;;7.84;76.83
39613;BME280;25303;48.896;13.342;2023-03-13T11:55:16;92124.41;;;7.71;76.66
39613;BME280;25303;48.896;13.342;2023-03-13T11:58:22;92117.50;;;7.72;77.36
39613;BME280;25303;48.896;13.342;2023-03-13T12:01:10;92117.22;;;7.83;77.18
39613;BME280;25303;48.896;13.342;2023-03-13T12:03:58;92123.00;;;7.94;77.34
39613;BME280;25303;48.896;13.342;2023-03-13T12:06:46;92114.19;;;7.96;76.25
39613;BME280;25303;48.896;13.342;2023-03-13T12:09:36;92123.03;;;8.02;76.33
39613;BME280;25303;48.896;13.342;2023-03-13T12:12:31;92124.16;;;8.08;76.66
39613;BME280;25303;48.896;13.342;2023-03-13T12:15:20;92118.69;;;8.11;76.50
39613;BME280;25303;48.896;13.342;2023-03-13T12:18:11;92115.94;;;8.04;75.69
39613;BME280;25303;48.896;13.342;2023-03-13T12:21:02;92106.19;;;8.08;75.88
39613;BME280;25303;48.896;13.342;2023-03-13T12:23:53;92107.47;;;8.12;75.88
39613;BME280;25303;48.896;13.342;2023-03-13T12:26:43;92095.78;;;8.17;75.65
39613;BME280;25303;48.896;13.342;2023-03-13T12:29:36;92083.75;;;8.18;75.09
39613;BME280;25303;48.896;13.342;2023-03-13T12:32:26;92076.84;;;8.27;75.18
39613;BME280;25303;48.896;13.342;2023-03-13T12:35:19;92078.44;;;8.44;74.75
39613;BME280;25303;48.896;13.342;2023-03-13T12:38:09;92066.91;;;8.57;74.58
39613;BME280;25303;48.896;13.342;2023-03-13T12:41:00;92068.97;;;8.70;73.61
39613;BME280;25303;48.896;13.342;2023-03-13T12:43:51;92062.63;;;8.89;74.01
39613;BME280;25303;48.896;13.342;2023-03-13T12:46:57;92067.88;;;9.04;74.09
39613;BME280;25303;48.896;13.342;2023-03-13T12:50:14;92060.75;;;9.22;73.89
39613;BME280;25303;48.896;13.342;2023-03-13T12:53:12;92058.22;;;9.46;73.07
39613;BME280;25303;48.896;13.342;2023-03-13T12:56:17;92064.31;;;9.76;72.80
39613;BME280;25303;48.896;13.342;2023-03-13T12:59:06;92046.44;;;9.83;71.93
39613;BME280;25303;48.896;13.342;2023-03-13T13:01:51;92056.75;;;9.98;72.38
39613;BME280;25303;48.896;13.342;2023-03-13T13:04:41;92045.38;;;9.92;69.77
39613;BME280;25303;48.896;13.342;2023-03-13T13:07:27;92044.41;;;9.93;70.62
39613;BME280;25303;48.896;13.342;2023-03-13T13:10:17;92039.19;;;10.01;71.52
39613;BME280;25303;48.896;13.342;2023-03-13T13:13:28;92039.66;;;10.05;69.58
39613;BME280;25303;48.896;13.342;2023-03-13T13:16:16;92038.13;;;9.96;70.33
39613;BME280;25303;48.896;13.342;2023-03-13T13:22:45;92042.25;;;9.58;69.33
39613;BME280;25303;48.896;13.342;2023-03-13T13:25:32;92041.75;;;9.63;70.80
39613;BME280;25303;48.896;13.342;2023-03-13T13:28:32;92035.78;;;9.63;71.38
39613;BME280;25303;48.896;13.342;2023-03-13T13:31:53;92034.69;;;9.57;70.93
39613;BME280;25303;48.896;13.342;2023-03-13T13:34:54;92025.16;;;9.42;70.93
39613;BME280;25303;48.896;13.342;2023-03-13T13:37:37;92014.66;;;9.29;72.02
39613;BME280;25303;48.896;13.342;2023-03-13T13:40:25;92014.97;;;9.26;71.76
39613;BME280;25303;48.896;13.342;2023-03-13T13:43:20;92011.25;;;9.28;72.74
39613;BME280;25303;48.896;13.342;2023-03-13T13:46:19;92014.41;;;9.16;72.46
39613;BME280;25303;48.896;13.342;2023-03-13T13:49:13;92011.44;;;9.27;72.23
39613;BME280;25303;48.896;13.342;2023-03-13T13:55:30;91982.63;;;9.17;72.52
39613;BME280;25303;48.896;13.342;2023-03-13T13:58:18;91977.72;;;9.30;73.09
39613;BME280;25303;48.896;13.342;2023-03-13T14:01:05;91980.69;;;9.65;73.12
39613;BME280;25303;48.896;13.342;2023-03-13T14:03:53;91972.84;;;9.82;72.08
39613;BME280;25303;48.896;13.342;2023-03-13T14:06:42;91977.94;;;9.67;72.18
39613;BME280;25303;48.896;13.342;2023-03-13T14:09:32;91981.41;;;9.97;71.31
39613;BME280;25303;48.896;13.342;2023-03-13T14:12:26;91972.63;;;10.07;70.71
39613;BME280;25303;48.896;13.342;2023-03-13T14:15:13;91965.28;;;10.18;71.35
39613;BME280;25303;48.896;13.342;2023-03-13T14:18:00;91954.88;;;9.97;68.81
39613;BME280;25303;48.896;13.342;2023-03-13T14:20:53;91952.41;;;10.18;69.88
39613;BME280;25303;48.896;13.342;2023-03-13T14:23:38;91957.31;;;10.28;69.87
39613;BME280;25303;48.896;13.342;2023-03-13T14:26:24;91953.22;;;10.19;69.03
39613;BME280;25303;48.896;13.342;2023-03-13T14:29:15;91940.28;;;10.27;68.78
39613;BME280;25303;48.896;13.342;2023-03-13T14:31:58;91937.50;;;10.29;69.30
39613;BME280;25303;48.896;13.342;2023-03-13T14:34:42;91934.88;;;10.37;69.01
39613;BME280;25303;48.896;13.342;2023-03-13T14:37:35;91919.53;;;10.44;68.76
39613;BME280;25303;48.896;13.342;2023-03-13T14:40:22;91914.38;;;10.59;69.20
39613;BME280;25303;48.896;13.342;2023-03-13T14:43:17;91902.19;;;10.68;68.19
39613;BME280;25303;48.896;13.342;2023-03-13T14:46:13;91894.56;;;10.74;67.26
39613;BME280;25303;48.896;13.342;2023-03-13T14:49:05;91886.47;;;10.77;66.81
39613;BME280;25303;48.896;13.342;2023-03-13T14:51:57;91880.94;;;10.81;66.42
39613;BME280;25303;48.896;13.342;2023-03-13T14:54:51;91875.34;;;10.92;66.98
39613;BME280;25303;48.896;13.342;2023-03-13T14:57:35;91880.00;;;11.03;67.40
39613;BME280;25303;48.896;13.342;2023-03-13T15:00:28;91877.13;;;11.13;67.39